Главная страница
METAR-TAF:

METAR-TAF

Аэропорты :

Лос-Кабос

Сан-Хосе-дель-Кабо, Мексика

широта: 23-09N, долгота: 109-42W, высота над уровнем моря: 109 м

Текущие метеонаблюдения

Эта сводка был подготовлена 5 часа и 18 минут назад, в 04:40 UTC
Ветер 3 Узел от южный-юго-западный
Температура 22°C
Влажность 69%
Давление 1015 hPa
Видимость: 16.1 км
Отдельные облака на высоте 25000 фута

METAR: MMSD 240440Z 21003KT 10SM SCT250 22/16 A2996 RMK 8/004

Время: 03:58 (09:58 UTC)

Прогноз

Эта сводка был подготовлена 5 часа и 43 минут назад, в 04:15 UTC
Прогноз действительный с 24-го 06 UTC до 25-го 06 UTC
Ветер 5 Узел от юго-юго-восточный
Видимость: 10 км
Отдельные облака на высоте 25000 фута
С 24-го 1700 UTC
Ветер 12 Узел от юго-юго-восточный
Видимость: 10 км
Отдельные облака на высоте 25000 фута
С 25-го 0200 UTC
Ветер 5 Узел от юго-юго-восточный
Видимость: 10 км
Отдельные облака на высоте 25000 фута

TAF: MMSD 240415Z 2406/2506 16005KT P6SM SCT250 FM241700 16012KT P6SM SCT250 FM250200 16005KT P6SM SCT250

Метеонаблюдения и прогнозы для более 4000 аэропортов (сводки METAR и TAF).

Имеющиеся станции представлены на карте желтыми и красными точками.

Чтобы увидеть название станции, наведите на нее мышь.

Затем щелкните, чтобы увидеть метеонаблюдения и метеопрогнозы.

Управление картой: чтобы увеличить масштаб, щелкните зеленые кнопки с черным крестиком; чтобы уменьшить масштаб, щелкните зеленую кнопку с тире; для просмотра соседних карт щелкайте зеленые стрелки.


METAR-TAF: